List of METAR weather stations located at airports

Search a station alphabetically:
A B C D E F G H I J K L M N O P Q R S T U V W X Y Z

Filter by:

ID of station:
and/or
Name of place (fulltext):
 
Station (ID)Last updated 
Aalborg (EKYT) 23.05.2024 18:46 UTC Display METAR
EKYT 231846Z AUTO 16006KT 9999 RA FEW007/// SCT058/// OVC084/// 17/16 Q1013
Aarhus (EKAH) 23.05.2024 18:50 UTC Display METAR
EKAH 231850Z AUTO 26005KT 230V290 9999 -RA OVC008/// 15/14 Q1014
Abu Dhabi (OMAA) 23.05.2024 19:00 UTC Display METAR
OMAA 231900Z 31008KT CAVOK 32/22 Q1003 NOSIG
Abuja (DNAA) 23.05.2024 18:00 UTC Display METAR
DNAA 231800Z 20008KT 9999 SCT013 31/24 Q1011 NOSIG
Accra (DGAA) 23.05.2024 19:00 UTC Display METAR
DGAA 231900Z 24007KT CAVOK 28/23 Q1011 NOSIG
Addis Abeba (HAAB) 23.05.2024 19:00 UTC Display METAR
HAAB 231900Z 11002KT 9999 BKN025 17/14 Q1027
Agana (PGUM) 23.05.2024 18:54 UTC Display METAR
PGUM 231854Z 05007KT 10SM FEW028 26/26 A2987 RMK AO2 RAE1758 SLP107 P0000 T02610256
Ahe Island (NTHE) Not yet loaded  
Akureyri (BIAR) 23.05.2024 19:00 UTC Display METAR
BIAR 231900Z 01008KT 9999 FEW065 10/02 Q1016
Almaty (UAAA) Not yet loaded  
Amman (OJAM) 23.05.2024 19:00 UTC Display METAR
OJAM 231900Z 25010KT 6000 NSC 25/09 Q1015 NOSIG
Amsterdam (EHAM) 23.05.2024 18:55 UTC Display METAR
EHAM 231855Z 27010KT 240V300 CAVOK 16/11 Q1015 NOSIG
Antananarivo (FMMI) 23.05.2024 19:00 UTC Display METAR
FMMI 231900Z 12005KT 9999 FEW017 BKN020 13/13 Q1024 NOSIG
Antwerp (EBAW) 23.05.2024 18:50 UTC Display METAR
EBAW 231850Z 10004KT 9999 FEW034 16/11 Q1016 NOSIG
Apia (NSFA) 23.05.2024 19:00 UTC Display METAR
NSFA 231900Z 09004KT 9999 FEW024 SCT290 28/25 Q1011
Aruba I (TNCA) 23.05.2024 19:00 UTC Display METAR
TNCA 231900Z 10014KT 9999 FEW023 32/25 Q1011 NOSIG
Ascension I. (FHAW) 23.05.2024 14:50 UTC Display METAR
FHAW 231450Z 13013KT 9999 FEW030 29/19 Q1013 NOSIG RMK BLU BLU
Ashgabat (UTAA) 23.05.2024 10:00 UTC Display METAR
UTAA 231000Z 31014KT 9999 FEW050 SCT100 22/12 Q1013 R88/CLRD70 NOSIG
Asmara (HHAS) 03.02.2015 17:00 UTC Display METAR
HHAS 031700Z 27004KT CAVOK 15/06 Q1028 NOSIG
Astana (UACC) Not yet loaded  
Astrakhan (URWA) Not yet loaded  
Asuncion (SGAS) 23.05.2024 19:00 UTC Display METAR
SGAS 231900Z 27010KT 4000 DZ BR OVC006 20/20 Q1012
Athens (LGAV) 23.05.2024 18:50 UTC Display METAR
LGAV 231850Z 00000KT 9999 FEW030 23/10 Q1014 NOSIG
Baghdad (ORBS) 06.06.2012 04:00 UTC  
Bagram (KQSA) 11.12.2022 19:00 UTC Display METAR
KQSA 111900Z VRB06KT 7SM BKN050 09/04 A2991 RMK SLP126 TOO940044
Bahrain (OBBI) 23.05.2024 19:00 UTC Display METAR
OBBI 231900Z VRB02KT CAVOK 32/17 Q1005 NOSIG
Baku (UBBB) 23.05.2024 19:00 UTC Display METAR
UBBB 231900Z 00000KT CAVOK 17/13 Q1015 NOSIG
Bamako (GABS) 23.05.2024 19:00 UTC Display METAR
GABS 231900Z 11004KT 9999 FEW025 37/17 Q1009 NOSIG
Bandar Seri Begawan (WBSB) 23.05.2024 06:00 UTC Display METAR
WBSB 230600Z 28009KT 9999 SCT016 BKN300 33/30 Q1006 WS ALL RWY NOSIG
Bangkok (VTBD) 23.05.2024 19:00 UTC Display METAR
VTBD 231900Z 14006KT 9999 FEW020 SCT030 27/26 Q1007 NOSIG
Bangui (FEFF) 23.05.2024 18:00 UTC Display METAR
FEFF 231800Z VRB03KT 9999 FEW020 30/23 Q1010 NOSIG
Banja Luka (LQBK) 23.05.2024 19:00 UTC Display METAR
LQBK 231900Z 12002KT 9999 SCT043 16/16 Q1016 NOSIG
Banjul (GBYD) 23.05.2024 19:00 UTC Display METAR
GBYD 231900Z 25010KT CAVOK 27/21 Q1010
Barbados (TBPB) 23.05.2024 19:00 UTC Display METAR
TBPB 231900Z 14010KT 4000 -SHRA BKN016 BKN034 25/24 Q1013 NOSIG
Barcelona (LEBL) 23.05.2024 19:00 UTC Display METAR
LEBL 231900Z 11007KT 9999 SCT024 18/14 Q1018 NOSIG
Bari (LIBD) 23.05.2024 18:50 UTC Display METAR
LIBD 231850Z 08007KT 9999 FEW030 21/15 Q1016
Basle-Mulhouse (LFSB) 23.05.2024 16:00 UTC Display METAR
LFSB 231600Z AUTO 13007KT 090V170 CAVOK 17/11 Q1017 TEMPO 3000 TSRA FEW025CB
Basse-Terre (TFFB) Not yet loaded  
Basseterre (TKPK) 23.05.2024 19:00 UTC Display METAR
TKPK 231900Z 12005KT 9999 FEW020 BKN045 30/25 Q1015
Beijing (ZBAA) Not yet loaded  
Beirut (OLBA) 23.05.2024 19:00 UTC Display METAR
OLBA 231900Z 17009KT CAVOK 27/09 Q1011 NOSIG
Belfast (EGAA) 23.05.2024 18:50 UTC Display METAR
EGAA 231850Z AUTO 32012KT 9999 OVC012 09/07 Q1015
Belgrade (LYBE) 23.05.2024 19:00 UTC Display METAR
LYBE 231900Z 01003KT CAVOK 16/15 Q1016 NOSIG
Belize City (MZBZ) 23.05.2024 19:00 UTC Display METAR
MZBZ 231900Z 07012KT 9999 SCT025 32/26 A2986 Q1011 NOSIG RMK FU-S/SE
Bergen (ENBR) 23.05.2024 18:50 UTC Display METAR
ENBR 231850Z 21007KT 9999 FEW030 SCT070 17/11 Q1015 NOSIG RMK WIND 1200FT 24013KT
Berlin (EDDT) 09.11.2020 06:50 UTC Display METAR
EDDT 090650Z 09006KT 050V120 3000 BR OVC003 06/05 Q1027
Bermuda Is (TXKF) 23.05.2024 18:55 UTC Display METAR
TXKF 231855Z 02004KT 340V070 9999 FEW018 BKN300 25/21 Q1017
Bern (LSZB) 23.05.2024 18:50 UTC Display METAR
LSZB 231850Z 27003KT 9999 SCT075 13/10 Q1018
Billund (EKBI) 23.05.2024 18:50 UTC Display METAR
EKBI 231850Z AUTO 24006KT 9999 OVC019/// 15/13 Q1015
Birmingham (EGBB) 23.05.2024 18:50 UTC Display METAR
EGBB 231850Z 27008KT 9999 BKN025 12/07 Q1014
1 2 3 ... 8 Next

Newslettter

Weather to your email

We'll send a daily weather forecast every morning without ads



Unsubscribe newsletter

Beautiful photos of nature as the wallpapers for your desktop

All articles

WeatherSunshine.com